Time;durP1;ratioP1;P1;durP2;ratioP2;P2;SDS_P1;SDS_P2;PMS_P1;PMS_P2;Temp;Humidity;BMP_temperature;BMP_pressure;BME280_temperature;BME280_humidity;BME280_pressure;Samples;Min_cycle;Max_cycle;Signal;HPM_P1;HPM_P2
2023/08/01 00:00:45;;;;;;;6.78;4.50;;;16.20;99.90;;;;;;5053236;28;20102;-77
2023/08/01 00:03:10;;;;;;;9.93;4.57;;;16.20;99.90;;;;;;5053586;28;20116;-78
2023/08/01 00:05:37;;;;;;;7.18;4.32;;;16.10;99.90;;;;;;5062371;28;20037;-75
2023/08/01 00:08:03;;;;;;;7.28;4.72;;;16.10;99.90;;;;;;5053040;28;20469;-78
2023/08/01 00:10:28;;;;;;;8.52;4.93;;;16.20;99.90;;;;;;5054745;28;20083;-76
2023/08/01 00:12:54;;;;;;;8.15;5.60;;;16.10;99.90;;;;;;5073246;28;20051;-78
2023/08/01 00:15:20;;;;;;;7.05;4.65;;;16.20;99.90;;;;;;5065372;28;20041;-78
2023/08/01 00:17:46;;;;;;;7.45;5.13;;;16.10;99.90;;;;;;5054633;28;20091;-76
2023/08/01 00:20:11;;;;;;;9.02;5.10;;;16.10;99.90;;;;;;5054523;28;20045;-77
2023/08/01 00:22:37;;;;;;;10.07;5.60;;;16.10;99.90;;;;;;5060586;28;20045;-78
2023/08/01 00:25:03;;;;;;;7.70;5.10;;;16.10;99.90;;;;;;5055735;28;20063;-77
2023/08/01 00:27:29;;;;;;;10.85;5.45;;;16.10;99.90;;;;;;5065516;28;20062;-78
2023/08/01 00:29:54;;;;;;;6.93;4.88;;;16.10;99.90;;;;;;5052501;28;20460;-77
2023/08/01 00:32:21;;;;;;;8.68;5.35;;;16.10;99.90;;;;;;5082699;28;20060;-77
2023/08/01 00:34:49;;;;;;;7.80;5.10;;;16.10;99.90;;;;;;5056241;28;20072;-76
2023/08/01 00:37:15;;;;;;;7.95;5.43;;;16.10;99.90;;;;;;5071715;28;20642;-75
2023/08/01 00:39:41;;;;;;;8.68;4.85;;;16.10;99.90;;;;;;5068539;28;20071;-76
2023/08/01 00:42:06;;;;;;;7.20;4.70;;;16.10;99.90;;;;;;5062384;28;20040;-76
2023/08/01 00:44:32;;;;;;;7.85;5.00;;;16.10;99.90;;;;;;5063219;28;20044;-77
2023/08/01 00:46:58;;;;;;;8.48;4.85;;;16.00;99.90;;;;;;5052080;28;20523;-76
2023/08/01 00:49:23;;;;;;;9.75;4.93;;;16.00;99.90;;;;;;5057908;28;20040;-76
2023/08/01 00:51:49;;;;;;;6.78;4.40;;;16.00;99.90;;;;;;5065642;28;20056;-75
2023/08/01 00:54:16;;;;;;;7.80;5.22;;;16.10;99.90;;;;;;5058221;28;20045;-76
2023/08/01 00:56:42;;;;;;;8.48;5.70;;;16.00;99.90;;;;;;5035059;28;20131;-76
2023/08/01 00:59:08;;;;;;;7.93;5.28;;;16.00;99.90;;;;;;5052384;28;20041;-76
2023/08/01 01:01:33;;;;;;;9.02;5.88;;;16.00;99.90;;;;;;5054356;28;20493;-79
2023/08/01 01:03:59;;;;;;;9.88;5.45;;;16.00;99.90;;;;;;5034706;28;20049;-75
2023/08/01 01:06:30;;;;;;;10.10;5.40;;;16.00;99.90;;;;;;5060272;28;20041;-77
2023/08/01 01:08:56;;;;;;;9.35;5.70;;;16.00;99.90;;;;;;5055138;28;20056;-77
2023/08/01 01:11:22;;;;;;;8.75;5.70;;;16.00;99.90;;;;;;5057443;28;20032;-76
2023/08/01 01:13:48;;;;;;;9.32;5.30;;;16.00;99.90;;;;;;5057091;28;20388;-77
2023/08/01 01:16:13;;;;;;;7.50;5.00;;;16.10;99.90;;;;;;5064937;28;20484;-76
2023/08/01 01:18:40;;;;;;;7.68;5.15;;;16.00;99.90;;;;;;5053458;28;20049;-78
2023/08/01 01:21:06;;;;;;;9.27;4.93;;;16.00;99.90;;;;;;5064483;28;20551;-77
2023/08/01 01:23:33;;;;;;;7.70;4.97;;;16.00;99.90;;;;;;5052417;28;20049;-77
2023/08/01 01:25:59;;;;;;;7.93;4.95;;;16.00;99.90;;;;;;5061072;28;20040;-77
2023/08/01 01:28:25;;;;;;;9.07;4.88;;;16.00;99.90;;;;;;5064687;28;20581;-76
2023/08/01 01:30:53;;;;;;;8.88;5.00;;;16.00;99.90;;;;;;5052455;28;20449;-78
2023/08/01 01:33:19;;;;;;;8.10;5.10;;;16.00;99.90;;;;;;5061273;28;20059;-77
2023/08/01 01:35:44;;;;;;;8.90;4.90;;;16.00;99.90;;;;;;5064478;28;20105;-77
2023/08/01 01:38:10;;;;;;;8.63;5.18;;;16.00;99.90;;;;;;5075983;28;20032;-76
2023/08/01 01:40:36;;;;;;;9.07;4.68;;;16.00;99.90;;;;;;5066939;28;20119;-76
2023/08/01 01:43:02;;;;;;;6.82;4.93;;;16.00;99.90;;;;;;5059029;28;20037;-76
2023/08/01 01:45:28;;;;;;;10.55;4.97;;;15.90;99.90;;;;;;5071111;28;20453;-77
2023/08/01 01:47:53;;;;;;;9.40;4.70;;;15.90;99.90;;;;;;5056055;28;20048;-77
2023/08/01 01:50:19;;;;;;;8.43;4.97;;;15.90;99.90;;;;;;5055816;28;20037;-76
2023/08/01 01:52:45;;;;;;;9.40;4.90;;;15.90;99.90;;;;;;5056086;28;20457;-78
2023/08/01 01:55:11;;;;;;;8.27;5.15;;;15.90;99.90;;;;;;5071728;28;20041;-77
2023/08/01 01:57:37;;;;;;;8.85;4.70;;;15.90;99.90;;;;;;5055893;28;20059;-77
2023/08/01 02:00:10;;;;;;;8.27;4.68;;;15.90;99.90;;;;;;5055873;28;20059;-76
2023/08/01 02:02:36;;;;;;;6.90;4.70;;;15.90;99.90;;;;;;5068840;28;20045;-77
2023/08/01 02:05:03;;;;;;;7.75;4.70;;;15.90;99.90;;;;;;5063589;28;20040;-77
2023/08/01 02:07:30;;;;;;;9.32;5.80;;;15.80;99.90;;;;;;5055396;28;20047;-76
2023/08/01 02:09:55;;;;;;;7.45;5.07;;;15.90;99.90;;;;;;5063413;28;20496;-76
2023/08/01 02:12:21;;;;;;;8.13;5.22;;;15.80;99.90;;;;;;5056095;28;20068;-76
2023/08/01 02:14:47;;;;;;;8.45;5.65;;;15.80;99.90;;;;;;5075717;28;20051;-76
2023/08/01 02:17:12;;;;;;;9.35;5.72;;;15.80;99.90;;;;;;5062029;28;20041;-75
2023/08/01 02:19:38;;;;;;;8.48;4.93;;;15.80;99.90;;;;;;5060661;28;20044;-78
2023/08/01 02:22:04;;;;;;;7.35;5.20;;;15.80;99.90;;;;;;5055736;28;20044;-76
2023/08/01 02:24:30;;;;;;;8.75;5.07;;;15.80;99.90;;;;;;5066672;28;20063;-77
2023/08/01 02:26:56;;;;;;;8.05;5.40;;;15.80;99.90;;;;;;5075104;28;20037;-76
2023/08/01 02:29:21;;;;;;;9.15;5.38;;;15.80;99.90;;;;;;5055102;28;20540;-77
2023/08/01 02:31:47;;;;;;;8.75;5.55;;;15.80;99.90;;;;;;5062594;28;20089;-77
2023/08/01 02:34:13;;;;;;;9.05;5.30;;;15.70;99.90;;;;;;5074763;28;20084;-77
2023/08/01 02:36:40;;;;;;;8.95;5.28;;;15.80;99.90;;;;;;5066016;28;20488;-76
2023/08/01 02:39:06;;;;;;;8.93;5.00;;;15.70;99.90;;;;;;5070797;28;20036;-77
2023/08/01 02:41:32;;;;;;;6.80;5.10;;;15.70;99.90;;;;;;5062362;28;20123;-78
2023/08/01 02:43:58;;;;;;;7.90;4.95;;;15.70;99.90;;;;;;5061682;28;20160;-77
2023/08/01 02:46:23;;;;;;;8.15;4.65;;;15.70;99.90;;;;;;5065563;28;20036;-78
2023/08/01 02:48:49;;;;;;;8.93;5.43;;;15.70;99.90;;;;;;5055021;28;20362;-77
2023/08/01 02:51:15;;;;;;;9.18;4.72;;;15.70;99.90;;;;;;5054898;28;20082;-77
2023/08/01 02:53:41;;;;;;;8.02;4.70;;;15.60;99.90;;;;;;5070061;28;20599;-77
2023/08/01 02:56:09;;;;;;;9.65;5.05;;;15.60;99.90;;;;;;5074047;28;20053;-76
2023/08/01 02:58:36;;;;;;;9.98;4.88;;;15.50;99.90;;;;;;5068901;28;20040;-77
2023/08/01 03:01:06;;;;;;;8.25;4.53;;;15.50;99.90;;;;;;5065523;28;20474;-78
2023/08/01 03:03:32;;;;;;;9.05;5.05;;;15.50;99.90;;;;;;5085461;28;20071;-77
2023/08/01 03:05:59;;;;;;;7.90;4.82;;;15.50;99.90;;;;;;5054286;28;20469;-77
2023/08/01 03:08:25;;;;;;;8.15;4.90;;;15.50;99.90;;;;;;5054346;28;20044;-77
2023/08/01 03:10:51;;;;;;;8.07;4.80;;;15.50;99.90;;;;;;5054200;28;20044;-78
2023/08/01 03:13:16;;;;;;;9.45;5.40;;;15.50;99.90;;;;;;5056275;28;20041;-77
2023/08/01 03:15:42;;;;;;;8.27;4.53;;;15.50;99.90;;;;;;5057697;28;20137;-77
2023/08/01 03:18:07;;;;;;;7.93;4.50;;;15.50;99.90;;;;;;5060334;28;20037;-76
2023/08/01 03:20:33;;;;;;;7.72;4.85;;;15.50;99.90;;;;;;5066704;28;20465;-77
2023/08/01 03:22:59;;;;;;;7.72;4.13;;;15.50;99.90;;;;;;5055672;28;20186;-77
2023/08/01 03:25:25;;;;;;;7.00;4.20;;;15.50;99.90;;;;;;5057979;28;20047;-76
2023/08/01 03:27:50;;;;;;;9.35;4.32;;;15.50;99.90;;;;;;5068294;28;20037;-76
2023/08/01 03:30:16;;;;;;;9.18;4.55;;;15.40;99.90;;;;;;5068172;28;20039;-76
2023/08/01 03:32:42;;;;;;;7.25;3.88;;;15.40;99.90;;;;;;5066386;28;20048;-76
2023/08/01 03:35:08;;;;;;;6.75;4.22;;;15.40;99.90;;;;;;5071414;28;20052;-76
2023/08/01 03:37:34;;;;;;;6.85;4.15;;;15.40;99.90;;;;;;5065471;28;20042;-75
2023/08/01 03:39:59;;;;;;;8.73;4.45;;;15.40;99.90;;;;;;5073922;28;20047;-76
2023/08/01 03:42:25;;;;;;;9.70;4.28;;;15.40;99.90;;;;;;5061806;28;20033;-76
2023/08/01 03:44:50;;;;;;;9.13;4.13;;;15.30;99.90;;;;;;5070361;28;20048;-76
2023/08/01 03:47:16;;;;;;;8.07;3.72;;;15.30;99.90;;;;;;5054220;28;20039;-76
2023/08/01 03:49:42;;;;;;;8.98;4.18;;;15.30;99.90;;;;;;5061943;28;20032;-76
2023/08/01 03:52:08;;;;;;;6.70;3.80;;;15.20;99.90;;;;;;5059955;28;20041;-78
2023/08/01 03:54:34;;;;;;;7.28;3.85;;;15.20;99.90;;;;;;5053894;28;20045;-77
2023/08/01 03:56:59;;;;;;;10.63;4.10;;;15.10;99.90;;;;;;5053136;28;20076;-78
2023/08/01 03:59:26;;;;;;;8.65;4.47;;;15.10;99.90;;;;;;5069200;28;20045;-75
2023/08/01 04:01:52;;;;;;;8.25;4.35;;;15.10;99.90;;;;;;5053357;28;20520;-77
2023/08/01 04:04:17;;;;;;;7.63;3.67;;;15.10;99.90;;;;;;5063960;28;20133;-76
2023/08/01 04:06:43;;;;;;;9.27;4.57;;;15.10;99.90;;;;;;5058534;28;20052;-78
2023/08/01 04:09:09;;;;;;;8.68;4.45;;;15.00;99.90;;;;;;5054787;28;20194;-78
2023/08/01 04:11:34;;;;;;;6.95;4.10;;;15.00;99.90;;;;;;5059056;28;20048;-77
2023/08/01 04:14:00;;;;;;;7.68;3.70;;;15.00;99.90;;;;;;5053570;28;20060;-75
2023/08/01 04:16:26;;;;;;;6.38;3.53;;;15.00;99.90;;;;;;5054308;28;20033;-77
2023/08/01 04:18:51;;;;;;;8.35;3.20;;;14.90;99.90;;;;;;5053013;28;20112;-76
2023/08/01 04:21:18;;;;;;;5.28;2.40;;;14.90;99.90;;;;;;5051863;28;20059;-77
2023/08/01 04:23:44;;;;;;;4.85;2.10;;;14.80;99.90;;;;;;5052713;28;20080;-77
2023/08/01 04:26:09;;;;;;;3.88;2.05;;;14.80;99.90;;;;;;5052245;28;20118;-77
2023/08/01 04:28:35;;;;;;;2.85;1.85;;;14.70;99.90;;;;;;5052401;28;20124;-77
2023/08/01 04:31:01;;;;;;;3.08;1.50;;;14.70;99.90;;;;;;5059979;28;20037;-77
2023/08/01 04:33:27;;;;;;;4.95;2.33;;;14.70;99.90;;;;;;5063066;28;20071;-76
2023/08/01 04:35:53;;;;;;;4.50;2.05;;;14.70;99.90;;;;;;5066692;28;20068;-76
2023/08/01 04:38:18;;;;;;;3.95;1.95;;;14.70;99.90;;;;;;5068872;28;20047;-76
2023/08/01 04:40:44;;;;;;;3.88;1.65;;;14.60;99.90;;;;;;5065334;28;20064;-77
2023/08/01 04:43:11;;;;;;;3.05;1.20;;;14.60;99.90;;;;;;5070990;28;20041;-78
2023/08/01 04:45:37;;;;;;;2.75;1.27;;;14.60;99.90;;;;;;5056554;28;20037;-77
2023/08/01 04:48:03;;;;;;;2.65;1.25;;;14.50;99.90;;;;;;5052235;28;20090;-76
2023/08/01 04:50:28;;;;;;;2.47;1.23;;;14.50;99.90;;;;;;5052618;28;20041;-77
2023/08/01 04:52:54;;;;;;;2.33;1.05;;;14.40;99.90;;;;;;5055140;28;20041;-77
2023/08/01 04:55:20;;;;;;;2.22;1.02;;;14.40;99.90;;;;;;5052075;28;20076;-77
2023/08/01 04:57:46;;;;;;;1.83;1.00;;;14.40;99.90;;;;;;5052818;28;20040;-76
2023/08/01 05:00:12;;;;;;;2.13;1.00;;;14.30;99.90;;;;;;5055062;28;20462;-77
2023/08/01 05:02:38;;;;;;;4.20;1.52;;;14.30;99.90;;;;;;5058489;28;20041;-76
2023/08/01 05:05:04;;;;;;;2.45;1.10;;;14.30;99.90;;;;;;5059130;28;20037;-76
2023/08/01 05:07:30;;;;;;;2.88;1.23;;;14.30;99.90;;;;;;5067433;28;20074;-77
2023/08/01 05:09:56;;;;;;;2.70;1.13;;;14.40;99.90;;;;;;5063581;28;20037;-76
2023/08/01 05:12:21;;;;;;;2.33;1.10;;;14.40;99.90;;;;;;5069000;28;20049;-76
2023/08/01 05:14:47;;;;;;;2.65;1.20;;;14.40;99.90;;;;;;5063035;28;20072;-77
2023/08/01 05:17:13;;;;;;;1.70;1.05;;;14.50;99.90;;;;;;5056119;28;20069;-77
2023/08/01 05:19:39;;;;;;;2.60;1.13;;;14.50;99.90;;;;;;5062857;28;20097;-78
2023/08/01 05:22:05;;;;;;;4.22;1.23;;;14.50;99.90;;;;;;5072946;28;20090;-76
2023/08/01 05:24:30;;;;;;;2.42;1.25;;;14.50;99.90;;;;;;5056573;28;20583;-77
2023/08/01 05:26:56;;;;;;;1.90;1.10;;;14.50;99.90;;;;;;5056198;28;20044;-76
2023/08/01 05:29:22;;;;;;;2.67;1.30;;;14.60;99.90;;;;;;5058756;28;20068;-77
2023/08/01 05:31:47;;;;;;;4.00;1.17;;;14.70;99.90;;;;;;5066589;28;20032;-76
2023/08/01 05:34:13;;;;;;;1.98;1.10;;;14.70;99.90;;;;;;5063643;28;20071;-76
2023/08/01 05:36:39;;;;;;;2.72;1.25;;;14.80;99.90;;;;;;5061725;28;20047;-76
2023/08/01 05:39:04;;;;;;;2.03;1.10;;;14.80;99.90;;;;;;5071129;28;20025;-76
2023/08/01 05:41:30;;;;;;;2.65;1.30;;;14.80;99.90;;;;;;5065524;28;20370;-77
2023/08/01 05:43:57;;;;;;;3.72;1.10;;;14.80;99.90;;;;;;5064896;28;20469;-76
2023/08/01 05:46:23;;;;;;;2.55;1.40;;;14.90;99.90;;;;;;5064480;28;20076;-76
2023/08/01 05:48:49;;;;;;;3.08;1.40;;;15.00;99.90;;;;;;5055918;28;20071;-76
2023/08/01 05:51:14;;;;;;;3.75;1.30;;;15.00;99.90;;;;;;5061761;28;20028;-77
2023/08/01 05:53:40;;;;;;;3.97;1.80;;;15.10;99.90;;;;;;5068794;28;20085;-76
2023/08/01 05:56:06;;;;;;;2.85;1.42;;;15.10;99.90;;;;;;5057806;28;20466;-76
2023/08/01 05:58:31;;;;;;;4.57;1.30;;;15.10;99.90;;;;;;5072636;28;20465;-77
2023/08/01 06:00:57;;;;;;;3.10;1.38;;;15.10;99.90;;;;;;5061605;28;20431;-77
2023/08/01 06:03:23;;;;;;;2.42;1.38;;;15.20;99.90;;;;;;5065056;28;20049;-75
2023/08/01 06:05:49;;;;;;;3.35;1.67;;;15.10;99.90;;;;;;5058437;28;20043;-77
2023/08/01 06:08:15;;;;;;;3.83;1.88;;;15.10;99.90;;;;;;5055415;28;20114;-77
2023/08/01 06:10:42;;;;;;;3.78;1.65;;;15.20;99.90;;;;;;5076836;28;20075;-68
2023/08/01 06:13:08;;;;;;;3.28;1.50;;;15.10;99.90;;;;;;5058053;28;20466;-68
2023/08/01 06:15:34;;;;;;;3.67;1.70;;;15.20;99.90;;;;;;5069421;28;20041;-67
2023/08/01 06:18:00;;;;;;;3.10;1.77;;;15.20;99.90;;;;;;5064504;28;20370;-68
2023/08/01 06:20:25;;;;;;;4.50;1.55;;;15.20;99.90;;;;;;5080446;28;20526;-68
2023/08/01 06:22:51;;;;;;;2.95;1.60;;;15.20;99.90;;;;;;5064151;28;20090;-68
2023/08/01 06:25:17;;;;;;;3.45;1.80;;;15.20;99.90;;;;;;5055654;28;20500;-68
2023/08/01 06:27:43;;;;;;;2.30;1.23;;;15.20;99.90;;;;;;5055124;28;20045;-66
2023/08/01 06:30:09;;;;;;;4.38;1.55;;;15.30;99.90;;;;;;5054511;28;20044;-68
2023/08/01 06:32:35;;;;;;;2.75;1.60;;;15.30;99.90;;;;;;5069885;28;20102;-68
2023/08/01 06:35:01;;;;;;;2.83;1.30;;;15.20;99.90;;;;;;5068839;28;20037;-68
2023/08/01 06:37:26;;;;;;;3.42;1.30;;;15.20;99.90;;;;;;5070626;28;20176;-69
2023/08/01 06:39:53;;;;;;;4.22;1.40;;;15.20;99.90;;;;;;5075264;28;20187;-68
2023/08/01 06:42:19;;;;;;;2.88;1.27;;;15.20;99.90;;;;;;5066198;28;20037;-67
2023/08/01 06:44:46;;;;;;;2.83;1.15;;;15.30;99.90;;;;;;5066706;28;20412;-68
2023/08/01 06:47:11;;;;;;;2.97;1.50;;;15.30;99.90;;;;;;5061279;28;20048;-69
2023/08/01 06:49:37;;;;;;;2.55;1.52;;;15.30;99.90;;;;;;5057202;28;20037;-69
2023/08/01 06:52:03;;;;;;;3.13;1.25;;;15.30;99.90;;;;;;5054811;28;20174;-69
2023/08/01 06:54:29;;;;;;;2.88;1.35;;;15.30;99.90;;;;;;5054918;28;20381;-67
2023/08/01 06:56:54;;;;;;;3.25;1.33;;;15.40;99.90;;;;;;5063903;28;20048;-68
2023/08/01 06:59:20;;;;;;;3.78;1.55;;;15.50;99.90;;;;;;5062270;28;20025;-68
2023/08/01 07:01:46;;;;;;;4.93;1.80;;;15.50;99.90;;;;;;5062671;28;20045;-68
2023/08/01 07:04:12;;;;;;;2.78;1.50;;;15.50;99.90;;;;;;5063052;28;20048;-68
2023/08/01 07:06:38;;;;;;;4.53;1.77;;;15.50;99.90;;;;;;5061389;28;20090;-68
2023/08/01 07:09:04;;;;;;;2.78;1.90;;;15.60;99.90;;;;;;5054440;28;20029;-69
2023/08/01 07:11:29;;;;;;;2.70;1.60;;;15.60;99.90;;;;;;5059715;28;20117;-71
2023/08/01 07:13:55;;;;;;;3.70;1.80;;;15.70;99.90;;;;;;5060263;28;20076;-69
2023/08/01 07:16:21;;;;;;;3.63;1.67;;;15.80;99.90;;;;;;5057025;28;20060;-70
2023/08/01 07:18:48;;;;;;;3.28;1.75;;;15.90;99.90;;;;;;5065311;28;20036;-70
2023/08/01 07:21:14;;;;;;;2.80;1.50;;;15.90;99.90;;;;;;5057430;28;20053;-70
2023/08/01 07:23:39;;;;;;;3.88;1.45;;;16.00;99.90;;;;;;5059829;28;20102;-68
2023/08/01 07:26:05;;;;;;;4.10;1.58;;;15.90;99.90;;;;;;5070251;28;20489;-69
2023/08/01 07:28:31;;;;;;;3.47;1.50;;;15.90;99.90;;;;;;5066295;28;20079;-70
2023/08/01 07:31:01;;;;;;;3.13;1.40;;;16.00;99.90;;;;;;5068138;28;20036;-70
2023/08/01 07:33:27;;;;;;;3.90;1.50;;;16.10;99.90;;;;;;5068862;28;20061;-70
2023/08/01 07:35:53;;;;;;;2.83;1.23;;;16.40;99.90;;;;;;5065865;28;20070;-71
2023/08/01 07:38:19;;;;;;;3.38;1.20;;;16.50;99.90;;;;;;5071482;28;20048;-71
2023/08/01 07:40:45;;;;;;;3.15;1.15;;;16.50;99.90;;;;;;5065342;28;20048;-71
2023/08/01 07:43:10;;;;;;;2.92;1.50;;;16.50;99.90;;;;;;5057705;28;20048;-69
2023/08/01 07:45:37;;;;;;;2.83;1.00;;;16.60;99.90;;;;;;5049884;28;20041;-69
2023/08/01 07:48:03;;;;;;;3.30;1.20;;;16.60;99.90;;;;;;5051756;28;20048;-69
2023/08/01 07:50:28;;;;;;;3.45;1.10;;;16.60;99.90;;;;;;5058600;28;20481;-69
2023/08/01 07:52:54;;;;;;;3.28;1.20;;;16.60;99.90;;;;;;5062514;28;20047;-69
2023/08/01 07:55:21;;;;;;;2.40;1.48;;;16.60;99.90;;;;;;5057729;28;20439;-69
2023/08/01 07:57:49;;;;;;;2.30;1.30;;;16.60;99.90;;;;;;5064330;28;20119;-67
2023/08/01 08:00:15;;;;;;;3.22;1.60;;;16.50;99.90;;;;;;5062829;28;20036;-68
2023/08/01 08:02:42;;;;;;;2.90;1.73;;;16.40;99.90;;;;;;5059297;28;20045;-68
2023/08/01 08:05:08;;;;;;;3.53;1.75;;;16.30;99.90;;;;;;5056398;28;20075;-68
2023/08/01 08:07:34;;;;;;;3.30;1.70;;;16.20;99.90;;;;;;5066099;28;20086;-68
2023/08/01 08:10:00;;;;;;;3.47;1.85;;;16.20;99.90;;;;;;5060136;28;20462;-68
2023/08/01 08:12:26;;;;;;;3.17;1.65;;;16.10;99.90;;;;;;5059512;28;20128;-68
2023/08/01 08:14:51;;;;;;;2.40;1.40;;;16.10;99.90;;;;;;5055088;28;20041;-68
2023/08/01 08:17:17;;;;;;;3.65;1.50;;;16.10;99.90;;;;;;5073818;28;20041;-67
2023/08/01 08:19:43;;;;;;;3.55;1.55;;;16.00;99.90;;;;;;5067300;28;20500;-67
2023/08/01 08:22:08;;;;;;;3.50;1.63;;;16.00;99.90;;;;;;5063110;28;20060;-67
2023/08/01 08:24:34;;;;;;;3.25;1.40;;;16.00;99.90;;;;;;5058963;28;20043;-68
2023/08/01 08:27:00;;;;;;;3.90;1.63;;;15.90;99.90;;;;;;5062360;28;20072;-68
2023/08/01 08:29:26;;;;;;;4.43;1.60;;;16.00;99.90;;;;;;5059428;28;20482;-68
2023/08/01 08:31:52;;;;;;;2.25;1.60;;;15.90;99.90;;;;;;5063933;28;20401;-69
2023/08/01 08:34:18;;;;;;;3.50;1.38;;;16.00;99.90;;;;;;5057998;28;20220;-69
2023/08/01 08:36:43;;;;;;;3.65;1.50;;;16.00;99.90;;;;;;5066905;28;20393;-69
2023/08/01 08:39:09;;;;;;;4.90;1.90;;;15.90;99.90;;;;;;5057314;28;20474;-68
2023/08/01 08:41:44;;;;;;;3.72;1.52;;;15.90;99.90;;;;;;5062958;28;20158;-69
2023/08/01 08:44:13;;;;;;;3.33;1.40;;;15.90;99.90;;;;;;5057663;28;20044;-68
2023/08/01 08:46:43;;;;;;;3.45;1.50;;;15.80;99.90;;;;;;5058543;28;20084;-67
2023/08/01 08:49:09;;;;;;;3.38;1.75;;;15.70;99.90;;;;;;5051634;28;20067;-67
2023/08/01 08:51:36;;;;;;;3.75;1.92;;;15.60;99.90;;;;;;5064008;28;20476;-68
2023/08/01 08:54:03;;;;;;;4.90;1.75;;;15.50;99.90;;;;;;5057498;28;20048;-67
2023/08/01 08:56:29;;;;;;;4.57;2.00;;;15.50;99.90;;;;;;5052522;28;20398;-67
2023/08/01 08:58:57;;;;;;;3.83;1.80;;;15.50;99.90;;;;;;5051719;28;20393;-68
2023/08/01 09:01:23;;;;;;;3.95;1.75;;;15.50;99.90;;;;;;5077116;28;20051;-67
2023/08/01 09:03:48;;;;;;;2.63;1.45;;;15.50;99.90;;;;;;5058908;28;20045;-68
2023/08/01 09:06:23;;;;;;;4.05;1.80;;;15.60;99.90;;;;;;5074528;28;20045;-67
2023/08/01 09:09:10;;;;;;;4.40;1.80;;;15.60;99.90;;;;;;5069203;28;20048;-68
2023/08/01 09:11:50;;;;;;;4.53;2.13;;;15.60;99.90;;;;;;5057481;28;20059;-67
2023/08/01 09:14:17;;;;;;;3.55;1.90;;;15.70;99.90;;;;;;5066761;28;20501;-69
2023/08/01 09:16:44;;;;;;;4.55;2.25;;;15.70;99.90;;;;;;5053014;28;20096;-85
2023/08/01 09:19:12;;;;;;;3.78;1.95;;;15.70;99.90;;;;;;5067117;28;20473;-82
2023/08/01 09:21:39;;;;;;;3.28;2.10;;;15.70;99.90;;;;;;5055025;28;20057;-79
2023/08/01 09:24:18;;;;;;;3.92;2.10;;;15.60;99.90;;;;;;5067989;28;20127;-79
2023/08/01 09:26:45;;;;;;;2.90;2.13;;;15.60;99.90;;;;;;5066134;28;20045;-77
2023/08/01 09:29:11;;;;;;;4.75;2.25;;;15.60;99.90;;;;;;5062993;28;20045;-78
2023/08/01 09:31:39;;;;;;;5.38;2.78;;;15.60;99.90;;;;;;5060374;28;20055;-82
2023/08/01 09:34:06;;;;;;;4.88;2.53;;;15.70;99.90;;;;;;5051663;28;20493;-78
2023/08/01 09:36:33;;;;;;;4.40;2.50;;;15.80;99.90;;;;;;5062360;28;20485;-82
2023/08/01 09:39:03;;;;;;;4.35;2.08;;;16.00;99.90;;;;;;5047398;28;20481;-81
2023/08/01 09:41:30;;;;;;;4.13;2.25;;;16.10;99.90;;;;;;5056281;28;20120;-85
2023/08/01 09:43:57;;;;;;;5.43;2.30;;;16.20;99.90;;;;;;5056154;28;20045;-81
2023/08/01 09:46:23;;;;;;;5.43;2.55;;;16.20;99.90;;;;;;5067189;28;20123;-80
2023/08/01 09:48:48;;;;;;;5.22;2.05;;;16.20;99.90;;;;;;5065301;28;20454;-77
2023/08/01 09:51:16;;;;;;;3.97;2.00;;;16.10;99.90;;;;;;5059451;28;20087;-79
2023/08/01 09:53:56;;;;;;;5.53;1.88;;;16.00;99.90;;;;;;5059539;28;20053;-84
2023/08/01 09:56:26;;;;;;;5.28;1.80;;;15.90;99.90;;;;;;5060072;28;20087;-84
2023/08/01 09:58:53;;;;;;;4.78;1.70;;;15.80;99.90;;;;;;5055232;28;20127;-80
2023/08/01 10:01:23;;;;;;;4.30;1.45;;;15.70;99.90;;;;;;5061887;28;20070;-81
2023/08/01 10:03:50;;;;;;;3.20;1.40;;;15.70;99.90;;;;;;5068038;28;20497;-79
2023/08/01 10:06:20;;;;;;;3.15;1.55;;;15.70;99.90;;;;;;5060552;28;20043;-79
2023/08/01 10:08:47;;;;;;;4.03;1.70;;;15.80;99.90;;;;;;5059229;28;20056;-78
2023/08/01 10:11:22;;;;;;;3.15;1.80;;;16.00;99.90;;;;;;5070611;28;20053;-80
2023/08/01 10:13:48;;;;;;;3.42;1.90;;;16.30;99.90;;;;;;5055043;28;20075;-79
2023/08/01 10:16:15;;;;;;;3.42;1.90;;;16.60;99.90;;;;;;5060740;28;20044;-82
2023/08/01 10:18:42;;;;;;;3.17;1.75;;;16.80;99.90;;;;;;5058474;28;20048;-79
2023/08/01 10:21:17;;;;;;;2.95;1.40;;;17.10;99.90;;;;;;5057462;28;20086;-78
2023/08/01 10:23:44;;;;;;;2.33;1.50;;;17.40;99.90;;;;;;5070347;28;20540;-80
2023/08/01 10:26:11;;;;;;;4.13;1.63;;;17.50;99.90;;;;;;5058249;28;20115;-81
2023/08/01 10:28:48;;;;;;;3.03;1.30;;;17.60;99.90;;;;;;5059726;28;20107;-80
2023/08/01 10:31:17;;;;;;;3.67;1.33;;;17.60;99.90;;;;;;5058397;28;20037;-81
2023/08/01 10:33:46;;;;;;;3.90;1.55;;;17.60;99.90;;;;;;5070504;28;20052;-84
2023/08/01 10:36:13;;;;;;;2.33;1.27;;;17.70;99.90;;;;;;5073637;28;20080;-77
2023/08/01 10:38:53;;;;;;;5.53;1.38;;;17.70;99.90;;;;;;5068262;28;20121;-79
2023/08/01 10:41:37;;;;;;;3.25;1.30;;;17.60;99.90;;;;;;5066843;28;20083;-77
2023/08/01 10:44:13;;;;;;;3.13;1.40;;;17.50;99.90;;;;;;5054108;28;20107;-79
2023/08/01 10:46:56;;;;;;;4.05;1.42;;;17.30;99.90;;;;;;5058357;28;20049;-80
2023/08/01 10:49:45;;;;;;;2.63;1.40;;;17.10;99.90;;;;;;5060065;28;20072;-79
2023/08/01 10:52:21;;;;;;;2.92;1.60;;;16.80;99.90;;;;;;5056827;28;20122;-80
2023/08/01 10:54:47;;;;;;;2.72;1.40;;;16.60;99.90;;;;;;5064035;28;20048;-80
2023/08/01 10:57:19;;;;;;;3.03;1.58;;;16.50;99.90;;;;;;5071162;28;20077;-81
2023/08/01 10:59:45;;;;;;;3.25;2.03;;;16.40;99.90;;;;;;5056197;28;20049;-77
2023/08/01 11:02:11;;;;;;;2.70;1.48;;;16.40;99.90;;;;;;5059898;28;20097;-77
2023/08/01 11:04:37;;;;;;;3.22;1.73;;;16.50;99.90;;;;;;5063941;28;20555;-76
2023/08/01 11:07:04;;;;;;;3.33;1.70;;;16.50;99.90;;;;;;5074419;28;20076;-80
2023/08/01 11:09:30;;;;;;;6.50;1.63;;;16.40;99.90;;;;;;5058574;28;20044;-80
2023/08/01 11:11:59;;;;;;;3.05;1.63;;;16.30;99.90;;;;;;5064505;28;20508;-80
2023/08/01 11:14:29;;;;;;;6.85;2.60;;;16.20;99.90;;;;;;5061670;28;20103;-82
2023/08/01 11:16:57;;;;;;;3.08;1.92;;;16.10;99.90;;;;;;5058882;28;20079;-80
2023/08/01 11:19:28;;;;;;;4.43;1.75;;;16.00;99.90;;;;;;5053724;28;20068;-80
2023/08/01 11:21:59;;;;;;;3.83;2.05;;;16.00;99.90;;;;;;5065440;28;20493;-82
2023/08/01 11:24:26;;;;;;;6.13;2.15;;;15.90;99.90;;;;;;5055687;28;20581;-81
2023/08/01 11:26:53;;;;;;;5.32;1.70;;;15.90;99.90;;;;;;5059475;28;20867;-78
2023/08/01 11:29:20;;;;;;;5.22;2.20;;;15.90;99.90;;;;;;5055158;28;20077;-78
2023/08/01 11:31:56;;;;;;;2.15;1.10;;;15.90;99.90;;;;;;5064462;28;20040;-77
2023/08/01 11:34:23;;;;;;;4.60;1.45;;;15.90;99.90;;;;;;5056390;28;20061;-76
2023/08/01 11:36:49;;;;;;;3.20;1.58;;;15.90;99.90;;;;;;5067259;28;20040;-76
2023/08/01 11:39:16;;;;;;;3.38;2.10;;;15.90;99.90;;;;;;5060626;28;20048;-82
2023/08/01 11:41:43;;;;;;;3.67;2.15;;;16.10;99.90;;;;;;5058928;28;20568;-77
2023/08/01 11:44:10;;;;;;;4.10;1.63;;;16.50;99.90;;;;;;5062278;28;20056;-80
2023/08/01 11:46:38;;;;;;;3.17;1.50;;;16.80;99.90;;;;;;5057714;28;20489;-81
2023/08/01 11:49:05;;;;;;;2.47;1.30;;;16.90;99.90;;;;;;5053149;28;20068;-82
2023/08/01 11:51:40;;;;;;;4.18;1.90;;;16.80;99.90;;;;;;5064021;28;20087;-79
2023/08/01 11:54:07;;;;;;;3.50;1.50;;;16.60;99.90;;;;;;5079120;28;20545;-80
2023/08/01 11:56:33;;;;;;;3.47;1.40;;;16.20;99.90;;;;;;5062208;28;20048;-78
2023/08/01 11:58:59;;;;;;;5.38;1.45;;;16.00;99.90;;;;;;5052671;28;20074;-82
2023/08/01 12:01:25;;;;;;;5.47;2.03;;;15.80;99.90;;;;;;5073809;28;20375;-81
2023/08/01 12:03:52;;;;;;;4.60;1.60;;;15.80;99.90;;;;;;5051486;28;20452;-77
2023/08/01 12:06:21;;;;;;;4.38;1.48;;;15.80;99.90;;;;;;5076997;28;20052;-80
2023/08/01 12:08:48;;;;;;;4.10;1.73;;;15.80;99.90;;;;;;5061152;28;20044;-79
2023/08/01 12:11:22;;;;;;;4.55;1.88;;;15.90;99.90;;;;;;5079516;28;20451;-81
2023/08/01 12:14:00;;;;;;;5.63;1.83;;;16.20;99.90;;;;;;5052997;28;20049;-79
2023/08/01 12:16:25;;;;;;;2.95;1.70;;;16.50;99.90;;;;;;5060235;28;20049;-81
2023/08/01 12:18:55;;;;;;;5.97;1.80;;;16.80;99.90;;;;;;5053985;28;20040;-81
2023/08/01 12:21:20;;;;;;;3.92;1.58;;;17.10;99.90;;;;;;5060153;28;20072;-82
2023/08/01 12:23:46;;;;;;;2.60;1.27;;;17.10;99.90;;;;;;5063068;28;20501;-83
2023/08/01 12:26:12;;;;;;;2.80;1.10;;;17.00;99.90;;;;;;5061252;28;20086;-81
2023/08/01 12:28:38;;;;;;;2.10;1.10;;;16.90;99.90;;;;;;5052497;28;20053;-79
2023/08/01 12:31:04;;;;;;;3.80;1.08;;;16.90;99.90;;;;;;5074969;28;20041;-81
2023/08/01 12:33:30;;;;;;;3.25;1.38;;;17.20;99.90;;;;;;5061868;28;20060;-77
2023/08/01 12:35:55;;;;;;;2.85;1.20;;;17.60;99.90;;;;;;5078312;28;20088;-77
2023/08/01 12:38:21;;;;;;;3.47;0.90;;;17.80;99.90;;;;;;5066157;28;20558;-79
2023/08/01 12:40:48;;;;;;;3.95;1.20;;;18.00;99.90;;;;;;5051040;28;20106;-77
2023/08/01 12:43:16;;;;;;;4.03;1.40;;;18.20;99.90;;;;;;5053886;28;20045;-79